sensor_id;sensor_type;location;lat;lon;timestamp;P1;durP1;ratioP1;P2;durP2;ratioP2
8538;SDS011;4307;53.868;11.680;2022-08-21T00:00:35;4.07;;;2.90;;
8538;SDS011;4307;53.868;11.680;2022-08-21T00:03:05;7.77;;;2.83;;
8538;SDS011;4307;53.868;11.680;2022-08-21T00:05:36;5.63;;;2.80;;
8538;SDS011;4307;53.868;11.680;2022-08-21T00:08:06;6.13;;;2.80;;
8538;SDS011;4307;53.868;11.680;2022-08-21T00:10:33;5.10;;;2.97;;
8538;SDS011;4307;53.868;11.680;2022-08-21T00:13:00;6.50;;;3.17;;
8538;SDS011;4307;53.868;11.680;2022-08-21T00:15:28;6.43;;;3.20;;
8538;SDS011;4307;53.868;11.680;2022-08-21T00:17:56;4.60;;;2.90;;
8538;SDS011;4307;53.868;11.680;2022-08-21T00:20:29;5.00;;;3.77;;
8538;SDS011;4307;53.868;11.680;2022-08-21T00:22:56;7.97;;;3.03;;
8538;SDS011;4307;53.868;11.680;2022-08-21T00:25:25;4.33;;;2.83;;
8538;SDS011;4307;53.868;11.680;2022-08-21T00:27:54;2.67;;;2.47;;
8538;SDS011;4307;53.868;11.680;2022-08-21T00:30:22;7.07;;;2.90;;
8538;SDS011;4307;53.868;11.680;2022-08-21T00:32:51;6.20;;;3.00;;
8538;SDS011;4307;53.868;11.680;2022-08-21T00:35:20;4.17;;;2.70;;
8538;SDS011;4307;53.868;11.680;2022-08-21T00:37:56;4.17;;;2.93;;
8538;SDS011;4307;53.868;11.680;2022-08-21T00:40:26;4.23;;;3.10;;
8538;SDS011;4307;53.868;11.680;2022-08-21T00:43:00;5.37;;;2.90;;
8538;SDS011;4307;53.868;11.680;2022-08-21T00:45:29;2.60;;;2.40;;
8538;SDS011;4307;53.868;11.680;2022-08-21T00:47:56;5.23;;;2.73;;
8538;SDS011;4307;53.868;11.680;2022-08-21T00:50:24;4.87;;;2.87;;
8538;SDS011;4307;53.868;11.680;2022-08-21T00:52:54;5.50;;;2.40;;
8538;SDS011;4307;53.868;11.680;2022-08-21T00:55:21;5.77;;;2.63;;
8538;SDS011;4307;53.868;11.680;2022-08-21T00:57:52;7.23;;;3.00;;
8538;SDS011;4307;53.868;11.680;2022-08-21T01:00:23;3.03;;;2.73;;
8538;SDS011;4307;53.868;11.680;2022-08-21T01:02:54;6.83;;;3.07;;
8538;SDS011;4307;53.868;11.680;2022-08-21T01:05:21;4.03;;;2.73;;
8538;SDS011;4307;53.868;11.680;2022-08-21T01:07:48;4.77;;;3.00;;
8538;SDS011;4307;53.868;11.680;2022-08-21T01:10:15;3.70;;;2.70;;
8538;SDS011;4307;53.868;11.680;2022-08-21T01:12:43;10.63;;;2.90;;
8538;SDS011;4307;53.868;11.680;2022-08-21T01:15:11;6.73;;;2.73;;
8538;SDS011;4307;53.868;11.680;2022-08-21T01:17:41;4.03;;;2.70;;
8538;SDS011;4307;53.868;11.680;2022-08-21T01:20:08;7.13;;;2.97;;
8538;SDS011;4307;53.868;11.680;2022-08-21T01:22:38;6.47;;;2.93;;
8538;SDS011;4307;53.868;11.680;2022-08-21T01:25:05;3.90;;;2.63;;
8538;SDS011;4307;53.868;11.680;2022-08-21T01:27:33;5.63;;;3.33;;
8538;SDS011;4307;53.868;11.680;2022-08-21T01:30:01;3.63;;;3.10;;
8538;SDS011;4307;53.868;11.680;2022-08-21T01:32:33;3.47;;;2.77;;
8538;SDS011;4307;53.868;11.680;2022-08-21T01:35:00;5.00;;;3.20;;
8538;SDS011;4307;53.868;11.680;2022-08-21T01:37:27;6.53;;;2.97;;
8538;SDS011;4307;53.868;11.680;2022-08-21T01:39:55;5.67;;;2.90;;
8538;SDS011;4307;53.868;11.680;2022-08-21T01:42:22;6.80;;;2.80;;
8538;SDS011;4307;53.868;11.680;2022-08-21T01:44:49;5.43;;;2.60;;
8538;SDS011;4307;53.868;11.680;2022-08-21T01:47:16;5.63;;;3.40;;
8538;SDS011;4307;53.868;11.680;2022-08-21T01:49:43;4.00;;;3.03;;
8538;SDS011;4307;53.868;11.680;2022-08-21T01:52:10;4.00;;;2.83;;
8538;SDS011;4307;53.868;11.680;2022-08-21T01:54:38;3.50;;;3.20;;
8538;SDS011;4307;53.868;11.680;2022-08-21T01:57:06;14.17;;;3.50;;
8538;SDS011;4307;53.868;11.680;2022-08-21T01:59:33;4.57;;;2.80;;
8538;SDS011;4307;53.868;11.680;2022-08-21T02:02:00;3.93;;;2.87;;
8538;SDS011;4307;53.868;11.680;2022-08-21T02:04:28;4.77;;;3.13;;
8538;SDS011;4307;53.868;11.680;2022-08-21T02:06:55;6.97;;;2.93;;
8538;SDS011;4307;53.868;11.680;2022-08-21T02:09:22;7.67;;;3.77;;
8538;SDS011;4307;53.868;11.680;2022-08-21T02:11:48;5.13;;;3.40;;
8538;SDS011;4307;53.868;11.680;2022-08-21T02:14:17;5.17;;;3.00;;
8538;SDS011;4307;53.868;11.680;2022-08-21T02:16:44;5.13;;;3.00;;
8538;SDS011;4307;53.868;11.680;2022-08-21T02:19:11;4.47;;;2.93;;
8538;SDS011;4307;53.868;11.680;2022-08-21T02:21:40;3.57;;;3.27;;
8538;SDS011;4307;53.868;11.680;2022-08-21T02:24:07;3.80;;;3.17;;
8538;SDS011;4307;53.868;11.680;2022-08-21T02:26:34;6.27;;;2.93;;
8538;SDS011;4307;53.868;11.680;2022-08-21T02:29:01;5.13;;;3.67;;
8538;SDS011;4307;53.868;11.680;2022-08-21T02:31:30;6.20;;;3.27;;
8538;SDS011;4307;53.868;11.680;2022-08-21T02:33:57;5.17;;;3.07;;
8538;SDS011;4307;53.868;11.680;2022-08-21T02:36:24;3.23;;;2.93;;
8538;SDS011;4307;53.868;11.680;2022-08-21T02:38:51;5.07;;;3.10;;
8538;SDS011;4307;53.868;11.680;2022-08-21T02:41:19;4.63;;;3.37;;
8538;SDS011;4307;53.868;11.680;2022-08-21T02:43:47;4.90;;;3.43;;
8538;SDS011;4307;53.868;11.680;2022-08-21T02:46:14;4.77;;;3.13;;
8538;SDS011;4307;53.868;11.680;2022-08-21T02:48:44;3.53;;;2.87;;
8538;SDS011;4307;53.868;11.680;2022-08-21T02:51:12;6.10;;;3.10;;
8538;SDS011;4307;53.868;11.680;2022-08-21T02:53:41;6.53;;;2.93;;
8538;SDS011;4307;53.868;11.680;2022-08-21T02:56:09;3.73;;;2.50;;
8538;SDS011;4307;53.868;11.680;2022-08-21T02:58:41;4.67;;;2.70;;
8538;SDS011;4307;53.868;11.680;2022-08-21T03:01:10;5.10;;;2.93;;
8538;SDS011;4307;53.868;11.680;2022-08-21T03:03:38;2.77;;;2.57;;
8538;SDS011;4307;53.868;11.680;2022-08-21T03:06:09;4.87;;;3.23;;
8538;SDS011;4307;53.868;11.680;2022-08-21T03:08:38;5.20;;;2.80;;
8538;SDS011;4307;53.868;11.680;2022-08-21T03:11:05;4.40;;;2.87;;
8538;SDS011;4307;53.868;11.680;2022-08-21T03:13:32;3.53;;;2.60;;
8538;SDS011;4307;53.868;11.680;2022-08-21T03:15:59;4.13;;;3.13;;
8538;SDS011;4307;53.868;11.680;2022-08-21T03:18:26;7.17;;;2.90;;
8538;SDS011;4307;53.868;11.680;2022-08-21T03:20:53;4.90;;;2.73;;
8538;SDS011;4307;53.868;11.680;2022-08-21T03:23:21;4.47;;;2.90;;
8538;SDS011;4307;53.868;11.680;2022-08-21T03:25:48;3.50;;;2.40;;
8538;SDS011;4307;53.868;11.680;2022-08-21T03:28:17;3.40;;;2.80;;
8538;SDS011;4307;53.868;11.680;2022-08-21T03:30:45;5.33;;;3.17;;
8538;SDS011;4307;53.868;11.680;2022-08-21T03:33:14;4.87;;;2.80;;
8538;SDS011;4307;53.868;11.680;2022-08-21T03:35:41;4.53;;;2.93;;
8538;SDS011;4307;53.868;11.680;2022-08-21T03:38:09;3.77;;;3.10;;
8538;SDS011;4307;53.868;11.680;2022-08-21T03:40:39;2.57;;;2.40;;
8538;SDS011;4307;53.868;11.680;2022-08-21T03:43:05;4.30;;;2.70;;
8538;SDS011;4307;53.868;11.680;2022-08-21T03:45:33;2.50;;;2.30;;
8538;SDS011;4307;53.868;11.680;2022-08-21T03:48:01;4.17;;;2.80;;
8538;SDS011;4307;53.868;11.680;2022-08-21T03:50:30;4.37;;;3.10;;
8538;SDS011;4307;53.868;11.680;2022-08-21T03:52:59;4.00;;;2.90;;
8538;SDS011;4307;53.868;11.680;2022-08-21T03:55:26;3.83;;;2.60;;
8538;SDS011;4307;53.868;11.680;2022-08-21T03:57:55;3.87;;;2.70;;
8538;SDS011;4307;53.868;11.680;2022-08-21T04:00:22;4.20;;;3.10;;
8538;SDS011;4307;53.868;11.680;2022-08-21T04:02:49;4.70;;;3.30;;
8538;SDS011;4307;53.868;11.680;2022-08-21T04:05:16;4.57;;;2.87;;
8538;SDS011;4307;53.868;11.680;2022-08-21T04:07:52;3.73;;;3.07;;
8538;SDS011;4307;53.868;11.680;2022-08-21T04:10:19;2.83;;;2.47;;
8538;SDS011;4307;53.868;11.680;2022-08-21T04:12:46;5.17;;;2.87;;
8538;SDS011;4307;53.868;11.680;2022-08-21T04:15:14;3.47;;;2.90;;
8538;SDS011;4307;53.868;11.680;2022-08-21T04:17:41;4.30;;;2.70;;
8538;SDS011;4307;53.868;11.680;2022-08-21T04:20:08;3.07;;;2.70;;
8538;SDS011;4307;53.868;11.680;2022-08-21T04:22:34;2.83;;;2.63;;
8538;SDS011;4307;53.868;11.680;2022-08-21T04:25:01;3.30;;;2.90;;
8538;SDS011;4307;53.868;11.680;2022-08-21T04:27:28;3.73;;;2.43;;
8538;SDS011;4307;53.868;11.680;2022-08-21T04:29:55;2.60;;;2.40;;
8538;SDS011;4307;53.868;11.680;2022-08-21T04:32:23;2.80;;;2.60;;
8538;SDS011;4307;53.868;11.680;2022-08-21T04:34:56;3.90;;;2.57;;
8538;SDS011;4307;53.868;11.680;2022-08-21T04:37:24;2.87;;;2.50;;
8538;SDS011;4307;53.868;11.680;2022-08-21T04:39:51;2.50;;;2.37;;
8538;SDS011;4307;53.868;11.680;2022-08-21T04:42:18;6.47;;;2.90;;
8538;SDS011;4307;53.868;11.680;2022-08-21T04:44:44;3.17;;;2.90;;
8538;SDS011;4307;53.868;11.680;2022-08-21T04:47:14;4.27;;;2.60;;
8538;SDS011;4307;53.868;11.680;2022-08-21T04:49:42;3.20;;;2.90;;
8538;SDS011;4307;53.868;11.680;2022-08-21T04:52:09;3.67;;;3.10;;
8538;SDS011;4307;53.868;11.680;2022-08-21T04:54:37;8.47;;;2.80;;
8538;SDS011;4307;53.868;11.680;2022-08-21T04:57:05;2.77;;;2.57;;
8538;SDS011;4307;53.868;11.680;2022-08-21T04:59:36;3.00;;;2.67;;
8538;SDS011;4307;53.868;11.680;2022-08-21T05:02:06;2.97;;;2.73;;
8538;SDS011;4307;53.868;11.680;2022-08-21T05:04:36;3.63;;;2.60;;
8538;SDS011;4307;53.868;11.680;2022-08-21T05:07:07;3.70;;;2.97;;
8538;SDS011;4307;53.868;11.680;2022-08-21T05:09:39;4.50;;;2.70;;
8538;SDS011;4307;53.868;11.680;2022-08-21T05:12:06;5.53;;;2.67;;
8538;SDS011;4307;53.868;11.680;2022-08-21T05:14:33;2.93;;;2.73;;
8538;SDS011;4307;53.868;11.680;2022-08-21T05:17:00;5.60;;;3.03;;
8538;SDS011;4307;53.868;11.680;2022-08-21T05:19:26;6.97;;;3.47;;
8538;SDS011;4307;53.868;11.680;2022-08-21T05:21:53;4.83;;;2.77;;
8538;SDS011;4307;53.868;11.680;2022-08-21T05:24:22;3.33;;;2.97;;
8538;SDS011;4307;53.868;11.680;2022-08-21T05:26:48;3.40;;;2.90;;
8538;SDS011;4307;53.868;11.680;2022-08-21T05:29:15;5.03;;;3.10;;
8538;SDS011;4307;53.868;11.680;2022-08-21T05:31:42;5.33;;;2.90;;
8538;SDS011;4307;53.868;11.680;2022-08-21T05:34:10;5.07;;;3.10;;
8538;SDS011;4307;53.868;11.680;2022-08-21T05:36:36;3.13;;;2.80;;
8538;SDS011;4307;53.868;11.680;2022-08-21T05:39:03;5.40;;;2.93;;
8538;SDS011;4307;53.868;11.680;2022-08-21T05:41:31;6.30;;;3.80;;
8538;SDS011;4307;53.868;11.680;2022-08-21T05:43:58;3.53;;;3.23;;
8538;SDS011;4307;53.868;11.680;2022-08-21T05:46:25;4.33;;;3.13;;
8538;SDS011;4307;53.868;11.680;2022-08-21T05:48:51;6.70;;;3.27;;
8538;SDS011;4307;53.868;11.680;2022-08-21T05:51:18;3.20;;;2.90;;
8538;SDS011;4307;53.868;11.680;2022-08-21T05:53:45;4.33;;;3.30;;
8538;SDS011;4307;53.868;11.680;2022-08-21T05:56:12;5.23;;;3.60;;
8538;SDS011;4307;53.868;11.680;2022-08-21T05:58:42;5.77;;;3.80;;
8538;SDS011;4307;53.868;11.680;2022-08-21T06:01:09;6.07;;;4.00;;
8538;SDS011;4307;53.868;11.680;2022-08-21T06:03:37;7.30;;;3.87;;
8538;SDS011;4307;53.868;11.680;2022-08-21T06:06:06;5.40;;;3.53;;
8538;SDS011;4307;53.868;11.680;2022-08-21T06:08:33;4.87;;;3.70;;
8538;SDS011;4307;53.868;11.680;2022-08-21T06:11:00;6.60;;;4.33;;
8538;SDS011;4307;53.868;11.680;2022-08-21T06:13:28;7.77;;;4.07;;
8538;SDS011;4307;53.868;11.680;2022-08-21T06:16:02;5.23;;;4.43;;
8538;SDS011;4307;53.868;11.680;2022-08-21T06:18:31;5.27;;;3.97;;
8538;SDS011;4307;53.868;11.680;2022-08-21T06:20:58;6.67;;;4.23;;
8538;SDS011;4307;53.868;11.680;2022-08-21T06:23:25;9.07;;;4.07;;
8538;SDS011;4307;53.868;11.680;2022-08-21T06:25:52;5.03;;;3.90;;
8538;SDS011;4307;53.868;11.680;2022-08-21T06:28:18;6.80;;;4.10;;
8538;SDS011;4307;53.868;11.680;2022-08-21T06:30:45;7.90;;;3.90;;
8538;SDS011;4307;53.868;11.680;2022-08-21T06:33:13;9.50;;;4.50;;
8538;SDS011;4307;53.868;11.680;2022-08-21T06:35:40;6.70;;;3.80;;
8538;SDS011;4307;53.868;11.680;2022-08-21T06:38:08;8.13;;;4.10;;
8538;SDS011;4307;53.868;11.680;2022-08-21T06:40:35;9.87;;;4.40;;
8538;SDS011;4307;53.868;11.680;2022-08-21T06:43:06;6.53;;;3.70;;
8538;SDS011;4307;53.868;11.680;2022-08-21T06:45:34;6.77;;;3.97;;
8538;SDS011;4307;53.868;11.680;2022-08-21T06:48:01;5.87;;;4.13;;
8538;SDS011;4307;53.868;11.680;2022-08-21T06:50:29;4.93;;;4.03;;
8538;SDS011;4307;53.868;11.680;2022-08-21T06:53:00;6.33;;;3.73;;
8538;SDS011;4307;53.868;11.680;2022-08-21T06:55:28;6.47;;;3.80;;
8538;SDS011;4307;53.868;11.680;2022-08-21T06:57:55;6.67;;;3.60;;
8538;SDS011;4307;53.868;11.680;2022-08-21T07:00:22;8.27;;;4.17;;
8538;SDS011;4307;53.868;11.680;2022-08-21T07:02:49;8.57;;;4.00;;
8538;SDS011;4307;53.868;11.680;2022-08-21T07:05:15;9.07;;;4.10;;
8538;SDS011;4307;53.868;11.680;2022-08-21T07:07:43;6.80;;;3.70;;
8538;SDS011;4307;53.868;11.680;2022-08-21T07:10:10;6.63;;;3.80;;
8538;SDS011;4307;53.868;11.680;2022-08-21T07:12:37;5.63;;;3.70;;
8538;SDS011;4307;53.868;11.680;2022-08-21T07:15:04;7.43;;;3.37;;
8538;SDS011;4307;53.868;11.680;2022-08-21T07:17:31;3.60;;;2.83;;
8538;SDS011;4307;53.868;11.680;2022-08-21T07:19:58;4.77;;;2.53;;
8538;SDS011;4307;53.868;11.680;2022-08-21T07:22:25;4.87;;;2.20;;
8538;SDS011;4307;53.868;11.680;2022-08-21T07:24:54;5.90;;;2.43;;
8538;SDS011;4307;53.868;11.680;2022-08-21T07:27:20;5.30;;;2.50;;
8538;SDS011;4307;53.868;11.680;2022-08-21T07:29:47;4.00;;;2.50;;
8538;SDS011;4307;53.868;11.680;2022-08-21T07:32:14;5.50;;;3.30;;
8538;SDS011;4307;53.868;11.680;2022-08-21T07:34:41;5.83;;;2.87;;
8538;SDS011;4307;53.868;11.680;2022-08-21T07:37:07;4.20;;;3.50;;
8538;SDS011;4307;53.868;11.680;2022-08-21T07:39:34;5.87;;;3.50;;
8538;SDS011;4307;53.868;11.680;2022-08-21T07:42:02;6.93;;;3.60;;
8538;SDS011;4307;53.868;11.680;2022-08-21T07:44:29;8.80;;;4.07;;
8538;SDS011;4307;53.868;11.680;2022-08-21T07:46:56;8.63;;;3.20;;
8538;SDS011;4307;53.868;11.680;2022-08-21T07:49:23;6.57;;;2.90;;
8538;SDS011;4307;53.868;11.680;2022-08-21T07:51:49;5.20;;;2.60;;
8538;SDS011;4307;53.868;11.680;2022-08-21T07:54:16;5.23;;;2.93;;
8538;SDS011;4307;53.868;11.680;2022-08-21T07:56:43;2.67;;;1.70;;
8538;SDS011;4307;53.868;11.680;2022-08-21T07:59:11;5.53;;;2.40;;
8538;SDS011;4307;53.868;11.680;2022-08-21T08:01:38;3.97;;;1.97;;
8538;SDS011;4307;53.868;11.680;2022-08-21T08:04:05;3.67;;;2.13;;
8538;SDS011;4307;53.868;11.680;2022-08-21T08:06:32;3.40;;;1.70;;
8538;SDS011;4307;53.868;11.680;2022-08-21T08:08:58;4.33;;;1.93;;
8538;SDS011;4307;53.868;11.680;2022-08-21T08:11:28;2.10;;;1.80;;
8538;SDS011;4307;53.868;11.680;2022-08-21T08:13:55;4.17;;;2.27;;
8538;SDS011;4307;53.868;11.680;2022-08-21T08:16:24;3.00;;;1.83;;
8538;SDS011;4307;53.868;11.680;2022-08-21T08:18:51;4.67;;;2.10;;
8538;SDS011;4307;53.868;11.680;2022-08-21T08:21:19;5.37;;;2.30;;
8538;SDS011;4307;53.868;11.680;2022-08-21T08:23:46;5.13;;;2.07;;
8538;SDS011;4307;53.868;11.680;2022-08-21T08:26:13;6.40;;;2.10;;
8538;SDS011;4307;53.868;11.680;2022-08-21T08:28:40;7.50;;;2.53;;
8538;SDS011;4307;53.868;11.680;2022-08-21T08:31:07;3.77;;;2.00;;
8538;SDS011;4307;53.868;11.680;2022-08-21T08:33:35;2.80;;;1.90;;
8538;SDS011;4307;53.868;11.680;2022-08-21T08:36:02;5.10;;;2.27;;
8538;SDS011;4307;53.868;11.680;2022-08-21T08:38:29;6.63;;;2.10;;
8538;SDS011;4307;53.868;11.680;2022-08-21T08:40:57;4.37;;;2.27;;
8538;SDS011;4307;53.868;11.680;2022-08-21T08:43:29;4.00;;;1.93;;
8538;SDS011;4307;53.868;11.680;2022-08-21T08:45:57;8.30;;;2.37;;
8538;SDS011;4307;53.868;11.680;2022-08-21T08:48:46;7.43;;;2.67;;
8538;SDS011;4307;53.868;11.680;2022-08-21T08:51:18;4.07;;;2.10;;
8538;SDS011;4307;53.868;11.680;2022-08-21T08:53:51;7.20;;;2.70;;
8538;SDS011;4307;53.868;11.680;2022-08-21T08:56:21;6.03;;;2.20;;
8538;SDS011;4307;53.868;11.680;2022-08-21T08:58:52;4.90;;;2.43;;
8538;SDS011;4307;53.868;11.680;2022-08-21T09:01:22;6.83;;;2.40;;
8538;SDS011;4307;53.868;11.680;2022-08-21T09:03:50;5.80;;;2.47;;
8538;SDS011;4307;53.868;11.680;2022-08-21T09:06:28;4.40;;;2.33;;
8538;SDS011;4307;53.868;11.680;2022-08-21T09:09:07;5.47;;;2.67;;
8538;SDS011;4307;53.868;11.680;2022-08-21T09:11:48;4.83;;;2.27;;
8538;SDS011;4307;53.868;11.680;2022-08-21T09:14:23;2.80;;;2.27;;
8538;SDS011;4307;53.868;11.680;2022-08-21T09:16:55;5.60;;;2.63;;
8538;SDS011;4307;53.868;11.680;2022-08-21T09:22:23;4.27;;;1.97;;
8538;SDS011;4307;53.868;11.680;2022-08-21T09:24:58;3.30;;;2.10;;
8538;SDS011;4307;53.868;11.680;2022-08-21T09:27:34;4.83;;;1.97;;
8538;SDS011;4307;53.868;11.680;2022-08-21T09:30:02;5.50;;;2.30;;
8538;SDS011;4307;53.868;11.680;2022-08-21T09:32:31;6.17;;;2.30;;
8538;SDS011;4307;53.868;11.680;2022-08-21T09:35:03;5.07;;;2.47;;
8538;SDS011;4307;53.868;11.680;2022-08-21T09:37:33;5.60;;;2.50;;
8538;SDS011;4307;53.868;11.680;2022-08-21T09:40:02;6.57;;;2.50;;
8538;SDS011;4307;53.868;11.680;2022-08-21T09:42:41;4.40;;;2.37;;
8538;SDS011;4307;53.868;11.680;2022-08-21T09:45:10;5.90;;;2.17;;
8538;SDS011;4307;53.868;11.680;2022-08-21T09:47:39;6.50;;;2.00;;
8538;SDS011;4307;53.868;11.680;2022-08-21T09:50:08;9.73;;;2.50;;
8538;SDS011;4307;53.868;11.680;2022-08-21T09:52:41;6.63;;;2.63;;
8538;SDS011;4307;53.868;11.680;2022-08-21T09:55:14;3.90;;;2.20;;
8538;SDS011;4307;53.868;11.680;2022-08-21T09:57:58;6.87;;;2.43;;
8538;SDS011;4307;53.868;11.680;2022-08-21T10:00:27;3.97;;;2.23;;
8538;SDS011;4307;53.868;11.680;2022-08-21T10:03:06;5.73;;;2.50;;
8538;SDS011;4307;53.868;11.680;2022-08-21T10:05:36;3.63;;;2.00;;
8538;SDS011;4307;53.868;11.680;2022-08-21T10:08:04;3.50;;;2.10;;
8538;SDS011;4307;53.868;11.680;2022-08-21T10:10:41;4.30;;;1.93;;
8538;SDS011;4307;53.868;11.680;2022-08-21T10:13:09;3.33;;;1.87;;
8538;SDS011;4307;53.868;11.680;2022-08-21T10:15:42;3.77;;;2.27;;
8538;SDS011;4307;53.868;11.680;2022-08-21T10:18:20;3.27;;;2.10;;
8538;SDS011;4307;53.868;11.680;2022-08-21T10:20:54;3.67;;;1.80;;
8538;SDS011;4307;53.868;11.680;2022-08-21T10:23:35;3.93;;;2.43;;
8538;SDS011;4307;53.868;11.680;2022-08-21T10:26:10;5.70;;;2.17;;
8538;SDS011;4307;53.868;11.680;2022-08-21T10:28:46;4.80;;;1.80;;
8538;SDS011;4307;53.868;11.680;2022-08-21T10:31:21;5.20;;;2.57;;
8538;SDS011;4307;53.868;11.680;2022-08-21T10:33:59;4.90;;;2.23;;
8538;SDS011;4307;53.868;11.680;2022-08-21T10:36:39;3.37;;;1.87;;
8538;SDS011;4307;53.868;11.680;2022-08-21T10:39:13;6.23;;;2.40;;
8538;SDS011;4307;53.868;11.680;2022-08-21T10:41:52;4.83;;;2.67;;
8538;SDS011;4307;53.868;11.680;2022-08-21T10:44:30;10.27;;;2.70;;
8538;SDS011;4307;53.868;11.680;2022-08-21T10:47:04;3.03;;;2.13;;
8538;SDS011;4307;53.868;11.680;2022-08-21T10:49:37;5.97;;;2.20;;
8538;SDS011;4307;53.868;11.680;2022-08-21T10:52:25;6.17;;;2.27;;
8538;SDS011;4307;53.868;11.680;2022-08-21T10:55:00;3.55;;;2.40;;
8538;SDS011;4307;53.868;11.680;2022-08-21T10:57:34;4.60;;;2.30;;
8538;SDS011;4307;53.868;11.680;2022-08-21T11:00:07;6.37;;;2.70;;
8538;SDS011;4307;53.868;11.680;2022-08-21T11:02:37;3.03;;;2.40;;
8538;SDS011;4307;53.868;11.680;2022-08-21T11:05:10;7.63;;;2.70;;
8538;SDS011;4307;53.868;11.680;2022-08-21T11:07:43;5.37;;;2.37;;
8538;SDS011;4307;53.868;11.680;2022-08-21T11:10:14;4.07;;;2.00;;
8538;SDS011;4307;53.868;11.680;2022-08-21T11:12:46;4.90;;;2.60;;
8538;SDS011;4307;53.868;11.680;2022-08-21T11:15:23;3.97;;;2.10;;
8538;SDS011;4307;53.868;11.680;2022-08-21T11:17:57;5.07;;;2.10;;
8538;SDS011;4307;53.868;11.680;2022-08-21T11:20:31;4.43;;;2.17;;
8538;SDS011;4307;53.868;11.680;2022-08-21T11:23:11;4.23;;;2.23;;
8538;SDS011;4307;53.868;11.680;2022-08-21T11:25:44;4.27;;;2.50;;
8538;SDS011;4307;53.868;11.680;2022-08-21T11:28:15;5.10;;;2.13;;
8538;SDS011;4307;53.868;11.680;2022-08-21T11:30:51;5.33;;;2.60;;
8538;SDS011;4307;53.868;11.680;2022-08-21T11:33:27;8.13;;;2.70;;
8538;SDS011;4307;53.868;11.680;2022-08-21T11:36:12;3.47;;;2.13;;
8538;SDS011;4307;53.868;11.680;2022-08-21T11:38:50;4.03;;;2.17;;
8538;SDS011;4307;53.868;11.680;2022-08-21T11:41:25;4.80;;;2.53;;
8538;SDS011;4307;53.868;11.680;2022-08-21T11:43:57;4.77;;;2.40;;
8538;SDS011;4307;53.868;11.680;2022-08-21T11:46:35;3.13;;;1.90;;
8538;SDS011;4307;53.868;11.680;2022-08-21T11:52:10;5.83;;;2.13;;
8538;SDS011;4307;53.868;11.680;2022-08-21T11:54:43;7.70;;;2.50;;
8538;SDS011;4307;53.868;11.680;2022-08-21T11:57:14;4.40;;;2.10;;
8538;SDS011;4307;53.868;11.680;2022-08-21T11:59:46;5.10;;;2.17;;
8538;SDS011;4307;53.868;11.680;2022-08-21T12:02:18;8.23;;;2.00;;
8538;SDS011;4307;53.868;11.680;2022-08-21T12:04:47;4.53;;;2.40;;
8538;SDS011;4307;53.868;11.680;2022-08-21T12:07:28;5.43;;;2.70;;
8538;SDS011;4307;53.868;11.680;2022-08-21T12:09:58;3.73;;;2.03;;
8538;SDS011;4307;53.868;11.680;2022-08-21T12:12:26;4.10;;;2.00;;
8538;SDS011;4307;53.868;11.680;2022-08-21T12:15:05;4.17;;;1.93;;
8538;SDS011;4307;53.868;11.680;2022-08-21T12:17:50;4.17;;;2.27;;
8538;SDS011;4307;53.868;11.680;2022-08-21T12:20:22;4.00;;;2.20;;
8538;SDS011;4307;53.868;11.680;2022-08-21T12:23:03;4.13;;;2.00;;
8538;SDS011;4307;53.868;11.680;2022-08-21T12:25:41;5.03;;;2.50;;
8538;SDS011;4307;53.868;11.680;2022-08-21T12:28:09;4.90;;;2.13;;
8538;SDS011;4307;53.868;11.680;2022-08-21T12:30:38;3.73;;;2.17;;
8538;SDS011;4307;53.868;11.680;2022-08-21T12:33:18;3.30;;;1.80;;
8538;SDS011;4307;53.868;11.680;2022-08-21T12:35:49;4.67;;;1.70;;
8538;SDS011;4307;53.868;11.680;2022-08-21T12:38:20;3.47;;;2.00;;
8538;SDS011;4307;53.868;11.680;2022-08-21T12:40:54;4.40;;;2.33;;
8538;SDS011;4307;53.868;11.680;2022-08-21T12:43:26;4.60;;;1.97;;
8538;SDS011;4307;53.868;11.680;2022-08-21T12:45:56;2.67;;;1.80;;
8538;SDS011;4307;53.868;11.680;2022-08-21T12:48:26;2.73;;;2.10;;
8538;SDS011;4307;53.868;11.680;2022-08-21T12:51:05;2.60;;;1.58;;
8538;SDS011;4307;53.868;11.680;2022-08-21T12:53:39;4.43;;;1.92;;
8538;SDS011;4307;53.868;11.680;2022-08-21T12:56:14;2.42;;;1.75;;
8538;SDS011;4307;53.868;11.680;2022-08-21T12:58:44;3.42;;;2.13;;
8538;SDS011;4307;53.868;11.680;2022-08-21T13:01:14;3.08;;;2.10;;
8538;SDS011;4307;53.868;11.680;2022-08-21T13:03:48;3.50;;;2.00;;
8538;SDS011;4307;53.868;11.680;2022-08-21T13:06:15;2.95;;;1.90;;
8538;SDS011;4307;53.868;11.680;2022-08-21T13:08:45;4.18;;;1.80;;
8538;SDS011;4307;53.868;11.680;2022-08-21T13:11:16;2.35;;;1.70;;
8538;SDS011;4307;53.868;11.680;2022-08-21T13:13:48;4.00;;;2.00;;
8538;SDS011;4307;53.868;11.680;2022-08-21T13:16:18;2.73;;;1.87;;
8538;SDS011;4307;53.868;11.680;2022-08-21T13:18:52;3.60;;;2.03;;
8538;SDS011;4307;53.868;11.680;2022-08-21T13:21:26;2.63;;;2.07;;
8538;SDS011;4307;53.868;11.680;2022-08-21T13:23:54;7.63;;;2.30;;
8538;SDS011;4307;53.868;11.680;2022-08-21T13:26:22;4.63;;;2.23;;
8538;SDS011;4307;53.868;11.680;2022-08-21T13:28:49;4.60;;;2.53;;
8538;SDS011;4307;53.868;11.680;2022-08-21T13:31:17;6.10;;;2.27;;
8538;SDS011;4307;53.868;11.680;2022-08-21T13:33:48;5.37;;;1.93;;
8538;SDS011;4307;53.868;11.680;2022-08-21T13:36:17;3.67;;;1.83;;
8538;SDS011;4307;53.868;11.680;2022-08-21T13:38:46;3.57;;;1.70;;
8538;SDS011;4307;53.868;11.680;2022-08-21T13:41:17;3.13;;;2.20;;
8538;SDS011;4307;53.868;11.680;2022-08-21T13:43:50;4.30;;;2.20;;
8538;SDS011;4307;53.868;11.680;2022-08-21T13:46:23;3.37;;;2.00;;
8538;SDS011;4307;53.868;11.680;2022-08-21T13:48:52;5.40;;;2.30;;
8538;SDS011;4307;53.868;11.680;2022-08-21T13:51:20;3.53;;;1.97;;
8538;SDS011;4307;53.868;11.680;2022-08-21T13:53:47;5.17;;;2.70;;
8538;SDS011;4307;53.868;11.680;2022-08-21T13:56:24;4.80;;;2.10;;
8538;SDS011;4307;53.868;11.680;2022-08-21T13:58:54;3.80;;;2.40;;
8538;SDS011;4307;53.868;11.680;2022-08-21T14:01:23;3.67;;;2.13;;
8538;SDS011;4307;53.868;11.680;2022-08-21T14:03:53;4.03;;;2.10;;
8538;SDS011;4307;53.868;11.680;2022-08-21T14:06:23;2.93;;;1.90;;
8538;SDS011;4307;53.868;11.680;2022-08-21T14:08:53;3.47;;;1.90;;
8538;SDS011;4307;53.868;11.680;2022-08-21T14:11:22;4.20;;;2.20;;
8538;SDS011;4307;53.868;11.680;2022-08-21T14:13:55;5.50;;;2.10;;
8538;SDS011;4307;53.868;11.680;2022-08-21T14:16:26;4.33;;;2.53;;
8538;SDS011;4307;53.868;11.680;2022-08-21T14:19:07;4.00;;;2.30;;
8538;SDS011;4307;53.868;11.680;2022-08-21T14:21:37;4.13;;;2.37;;
8538;SDS011;4307;53.868;11.680;2022-08-21T14:24:09;3.10;;;2.10;;
8538;SDS011;4307;53.868;11.680;2022-08-21T14:26:42;2.50;;;1.93;;
8538;SDS011;4307;53.868;11.680;2022-08-21T14:29:15;4.03;;;2.00;;
8538;SDS011;4307;53.868;11.680;2022-08-21T14:31:48;2.83;;;2.00;;
8538;SDS011;4307;53.868;11.680;2022-08-21T14:34:16;5.13;;;2.60;;
8538;SDS011;4307;53.868;11.680;2022-08-21T14:36:43;2.23;;;2.03;;
8538;SDS011;4307;53.868;11.680;2022-08-21T14:39:10;4.83;;;2.20;;
8538;SDS011;4307;53.868;11.680;2022-08-21T14:41:41;4.53;;;2.17;;
8538;SDS011;4307;53.868;11.680;2022-08-21T14:44:10;5.40;;;2.60;;
8538;SDS011;4307;53.868;11.680;2022-08-21T14:46:39;5.03;;;2.20;;
8538;SDS011;4307;53.868;11.680;2022-08-21T14:49:06;3.30;;;2.53;;
8538;SDS011;4307;53.868;11.680;2022-08-21T14:51:33;3.93;;;2.27;;
8538;SDS011;4307;53.868;11.680;2022-08-21T14:53:59;3.73;;;2.57;;
8538;SDS011;4307;53.868;11.680;2022-08-21T14:56:26;4.07;;;2.50;;
8538;SDS011;4307;53.868;11.680;2022-08-21T14:58:53;4.87;;;2.33;;
8538;SDS011;4307;53.868;11.680;2022-08-21T15:01:25;2.40;;;2.20;;
8538;SDS011;4307;53.868;11.680;2022-08-21T15:03:53;4.57;;;2.33;;
8538;SDS011;4307;53.868;11.680;2022-08-21T15:06:19;3.20;;;2.27;;
8538;SDS011;4307;53.868;11.680;2022-08-21T15:08:46;3.97;;;2.33;;
8538;SDS011;4307;53.868;11.680;2022-08-21T15:11:19;4.37;;;2.33;;
8538;SDS011;4307;53.868;11.680;2022-08-21T15:13:48;6.13;;;2.30;;
8538;SDS011;4307;53.868;11.680;2022-08-21T15:16:23;4.50;;;2.53;;
8538;SDS011;4307;53.868;11.680;2022-08-21T15:18:50;4.40;;;2.30;;
8538;SDS011;4307;53.868;11.680;2022-08-21T15:21:18;9.60;;;7.00;;